»·PEaware :: UAL241 KPHX-KLAS

UAL241 :: KPHX-KLAS

FLIGHT INFORMATION

Flight Status: Arrived
Operator:
United Airlines
More flights by this operator :: More flights under this callsign
Pilot: Ryan H. (12491)
Aircraft: BOEING 737-800
(B738)
More flights by this aircraft type
Origin: KPHX Phoenix Sky Harbor Intl
United States
Destination: KLAS McCarran Intl
United States
More flights between these airports :: More routes between these airports
Route: +MAYSA5 SISIE IGM TYSSN5
File this flight plan on PilotEdge
Remarks:
Altitude:
(Current/Filed)
280ft
Speed:
(Current/Filed)
450kts
Departed: 04-Jan-18 07:07 PM
Arrived: 04-Jan-18 07:52 PM
Distance/Time
Traveled:
222nm/0:45
Distance/Time
To Go:
Arrived

Flight Plot

Page will automatically refresh every two minutes.

Flight plan parsing failed; only flown route is shown


Map Options




Map Legend


Flown Route
Filed Route
Departure Airport
Arrival Airport
Navaid (VOR, NDB)
Fix

Horizontal Profiles

Position Reports

Time Latitude Longitude Heading Altitude Ground
Speed
04-Jan-18 18:59 33.436935 -112.008044 269 1144ft 0kts
04-Jan-18 19:00 33.436935 -112.008044 269 1144ft 0kts
04-Jan-18 19:01 33.436935 -112.008044 269 1144ft 0kts
04-Jan-18 19:02 33.436935 -112.008044 269 1144ft 0kts
04-Jan-18 19:03 33.436935 -112.008044 269 1144ft 0kts
04-Jan-18 19:04 33.436935 -112.008044 269 1144ft 0kts
04-Jan-18 19:05 33.436935 -112.008044 269 1144ft 0kts
04-Jan-18 19:06 33.436935 -112.008044 269 1144ft 0kts
04-Jan-18 19:07 33.436935 -112.008044 269 1144ft 0kts
04-Jan-18 19:08 33.436730 -112.007314 316 1144ft 1kts
04-Jan-18 19:09 33.437280 -112.007410 358 1144ft 0kts
04-Jan-18 19:10 33.439703 -112.006823 84 1144ft 10kts
04-Jan-18 19:11 33.439715 -111.998192 89 1144ft 35kts
04-Jan-18 19:12 33.439808 -111.992597 47 1144ft 0kts
04-Jan-18 19:13 33.440828 -111.994887 269 1144ft 63kts
04-Jan-18 19:14 33.437613 -112.046526 261 3536ft 173kts
04-Jan-18 19:15 33.433823 -112.111810 269 6192ft 216kts
04-Jan-18 19:16 33.477040 -112.159513 346 9091ft 275kts
04-Jan-18 19:17 33.557138 -112.182353 341 11785ft 326kts
04-Jan-18 19:18 33.653571 -112.213351 341 13952ft 388kts
04-Jan-18 19:19 33.760100 -112.247812 341 17093ft 406kts
04-Jan-18 19:20 33.871288 -112.283835 341 19786ft 422kts
04-Jan-18 19:21 33.986311 -112.321176 339 22261ft 432kts
04-Jan-18 19:22 34.088665 -112.395386 317 24199ft 436kts
04-Jan-18 19:23 34.182869 -112.491461 317 25863ft 449kts
04-Jan-18 19:24 34.279816 -112.589162 317 27694ft 449kts
04-Jan-18 19:25 34.376399 -112.687050 317 28000ft 454kts
04-Jan-18 19:26 34.473372 -112.785201 317 28003ft 453kts
04-Jan-18 19:27 34.569916 -112.883109 317 28004ft 453kts
04-Jan-18 19:28 34.663553 -112.985610 315 28003ft 452kts
04-Jan-18 19:29 34.756824 -113.087944 315 28003ft 452kts
04-Jan-18 19:30 34.850128 -113.190372 315 28003ft 452kts
04-Jan-18 19:31 34.943802 -113.293206 315 28003ft 452kts
04-Jan-18 19:32 35.020006 -113.412556 297 28004ft 448kts
04-Jan-18 19:33 35.080666 -113.544972 297 28003ft 447kts
04-Jan-18 19:34 35.139075 -113.670671 297 28001ft 441kts
04-Jan-18 19:35 35.199552 -113.801748 297 26095ft 411kts
04-Jan-18 19:36 35.255407 -113.920552 304 23784ft 395kts
04-Jan-18 19:37 35.337424 -114.005946 320 21737ft 381kts
04-Jan-18 19:38 35.420593 -114.082914 319 19796ft 369kts
04-Jan-18 19:39 35.501479 -114.158358 319 17875ft 360kts
04-Jan-18 19:40 35.580123 -114.231892 319 15790ft 352kts
04-Jan-18 19:41 35.654461 -114.301253 319 14405ft 311kts
04-Jan-18 19:42 35.719170 -114.361870 319 13405ft 285kts
04-Jan-18 19:43 35.776887 -114.399621 335 12751ft 287kts
04-Jan-18 19:44 35.864321 -114.440497 335 12169ft 287kts
04-Jan-18 19:45 35.938220 -114.475123 335 11529ft 277kts
04-Jan-18 19:46 35.996438 -114.502390 334 10292ft 255kts
04-Jan-18 19:47 36.044074 -114.561967 281 9332ft 199kts
04-Jan-18 19:48 36.055137 -114.622610 280 8623ft 176kts
04-Jan-18 19:49 36.063731 -114.672051 280 8076ft 176kts
04-Jan-18 19:50 36.070847 -114.731430 273 7602ft 172kts
04-Jan-18 19:51 36.073135 -114.791138 271 6896ft 174kts
04-Jan-18 19:52 36.073668 -114.844792 271 6182ft 180kts
04-Jan-18 19:53 36.075453 -114.905082 267 5672ft 172kts
04-Jan-18 19:54 36.073894 -114.965337 269 4749ft 175kts
04-Jan-18 19:55 36.073754 -115.019949 269 3886ft 149kts
04-Jan-18 19:56 36.073714 -115.070956 270 3095ft 148kts
04-Jan-18 19:57 36.073671 -115.121503 269 2308ft 146kts
04-Jan-18 19:58 36.073635 -115.143779 286 2190ft 9kts
04-Jan-18 19:59 36.076028 -115.146616 358 2190ft 17kts
04-Jan-18 20:00 36.077745 -115.146972 337 2190ft 0kts
04-Jan-18 20:01 36.078014 -115.150388 284 2190ft 15kts
04-Jan-18 20:02 36.081313 -115.153039 281 2190ft 17kts
04-Jan-18 20:03 36.082460 -115.154421 353 2190ft 2kts
04-Jan-18 20:04 36.082948 -115.153618 110 2190ft 0kts
04-Jan-18 20:05 36.082948 -115.153618 110 2190ft 0kts

Navigation Log

Ident Type
Flight plan parsing failed, navigation log unavailable